sensor_id;sensor_type;location;lat;lon;timestamp;P1;durP1;ratioP1;P2;durP2;ratioP2
22733;SDS011;11534;51.994;5.692;2023-07-13T00:02:22;0.52;;;0.40;;
22733;SDS011;11534;51.994;5.692;2023-07-13T00:04:48;3.17;;;0.90;;
22733;SDS011;11534;51.994;5.692;2023-07-13T00:07:15;1.92;;;0.82;;
22733;SDS011;11534;51.994;5.692;2023-07-13T00:09:41;0.32;;;0.32;;
22733;SDS011;11534;51.994;5.692;2023-07-13T00:12:21;0.50;;;0.50;;
22733;SDS011;11534;51.994;5.692;2023-07-13T00:14:48;0.30;;;0.30;;
22733;SDS011;11534;51.994;5.692;2023-07-13T00:17:15;0.10;;;0.10;;
22733;SDS011;11534;51.994;5.692;2023-07-13T00:19:40;0.10;;;0.10;;
22733;SDS011;11534;51.994;5.692;2023-07-13T00:22:06;0.20;;;0.20;;
22733;SDS011;11534;51.994;5.692;2023-07-13T00:24:33;0.38;;;0.30;;
22733;SDS011;11534;51.994;5.692;2023-07-13T00:27:01;0.13;;;0.13;;
22733;SDS011;11534;51.994;5.692;2023-07-13T00:29:26;0.20;;;0.20;;
22733;SDS011;11534;51.994;5.692;2023-07-13T00:31:52;0.95;;;0.60;;
22733;SDS011;11534;51.994;5.692;2023-07-13T00:34:17;0.28;;;0.25;;
22733;SDS011;11534;51.994;5.692;2023-07-13T00:36:43;0.70;;;0.70;;
22733;SDS011;11534;51.994;5.692;2023-07-13T00:39:09;0.20;;;0.20;;
22733;SDS011;11534;51.994;5.692;2023-07-13T00:41:34;0.20;;;0.20;;
22733;SDS011;11534;51.994;5.692;2023-07-13T00:44:02;0.30;;;0.30;;
22733;SDS011;11534;51.994;5.692;2023-07-13T00:46:29;1.02;;;0.57;;
22733;SDS011;11534;51.994;5.692;2023-07-13T00:48:57;0.45;;;0.30;;
22733;SDS011;11534;51.994;5.692;2023-07-13T00:51:45;0.30;;;0.30;;
22733;SDS011;11534;51.994;5.692;2023-07-13T00:54:23;0.10;;;0.10;;
22733;SDS011;11534;51.994;5.692;2023-07-13T00:57:01;0.22;;;0.22;;
22733;SDS011;11534;51.994;5.692;2023-07-13T00:59:29;0.20;;;0.20;;
22733;SDS011;11534;51.994;5.692;2023-07-13T01:01:55;0.32;;;0.32;;
22733;SDS011;11534;51.994;5.692;2023-07-13T01:04:23;0.20;;;0.20;;
22733;SDS011;11534;51.994;5.692;2023-07-13T01:06:50;0.30;;;0.30;;
22733;SDS011;11534;51.994;5.692;2023-07-13T01:09:16;0.20;;;0.20;;
22733;SDS011;11534;51.994;5.692;2023-07-13T01:11:42;0.35;;;0.30;;
22733;SDS011;11534;51.994;5.692;2023-07-13T01:14:09;0.65;;;0.65;;
22733;SDS011;11534;51.994;5.692;2023-07-13T01:16:36;0.20;;;0.20;;
22733;SDS011;11534;51.994;5.692;2023-07-13T01:19:05;0.50;;;0.50;;
22733;SDS011;11534;51.994;5.692;2023-07-13T01:21:39;0.50;;;0.40;;
22733;SDS011;11534;51.994;5.692;2023-07-13T01:24:07;0.38;;;0.30;;
22733;SDS011;11534;51.994;5.692;2023-07-13T01:26:34;0.40;;;0.40;;
22733;SDS011;11534;51.994;5.692;2023-07-13T01:28:59;0.50;;;0.50;;
22733;SDS011;11534;51.994;5.692;2023-07-13T01:31:25;0.30;;;0.30;;
22733;SDS011;11534;51.994;5.692;2023-07-13T01:33:51;0.20;;;0.20;;
22733;SDS011;11534;51.994;5.692;2023-07-13T01:36:18;0.20;;;0.20;;
22733;SDS011;11534;51.994;5.692;2023-07-13T01:38:46;0.17;;;0.17;;
22733;SDS011;11534;51.994;5.692;2023-07-13T01:41:11;0.52;;;0.32;;
22733;SDS011;11534;51.994;5.692;2023-07-13T01:43:37;0.30;;;0.30;;
22733;SDS011;11534;51.994;5.692;2023-07-13T01:46:04;0.43;;;0.40;;
22733;SDS011;11534;51.994;5.692;2023-07-13T01:48:29;0.38;;;0.25;;
22733;SDS011;11534;51.994;5.692;2023-07-13T01:50:55;0.40;;;0.40;;
22733;SDS011;11534;51.994;5.692;2023-07-13T01:53:21;0.35;;;0.35;;
22733;SDS011;11534;51.994;5.692;2023-07-13T01:55:46;0.20;;;0.20;;
22733;SDS011;11534;51.994;5.692;2023-07-13T01:58:12;0.20;;;0.20;;
22733;SDS011;11534;51.994;5.692;2023-07-13T02:00:38;0.20;;;0.20;;
22733;SDS011;11534;51.994;5.692;2023-07-13T02:03:03;0.20;;;0.20;;
22733;SDS011;11534;51.994;5.692;2023-07-13T02:05:29;0.20;;;0.20;;
22733;SDS011;11534;51.994;5.692;2023-07-13T02:07:54;0.20;;;0.20;;
22733;SDS011;11534;51.994;5.692;2023-07-13T02:10:20;0.30;;;0.30;;
22733;SDS011;11534;51.994;5.692;2023-07-13T02:12:47;0.20;;;0.20;;
22733;SDS011;11534;51.994;5.692;2023-07-13T02:15:15;0.10;;;0.10;;
22733;SDS011;11534;51.994;5.692;2023-07-13T02:17:41;0.47;;;0.47;;
22733;SDS011;11534;51.994;5.692;2023-07-13T02:20:07;0.90;;;0.57;;
22733;SDS011;11534;51.994;5.692;2023-07-13T02:22:34;0.30;;;0.30;;
22733;SDS011;11534;51.994;5.692;2023-07-13T02:25:00;0.20;;;0.20;;
22733;SDS011;11534;51.994;5.692;2023-07-13T02:27:26;0.20;;;0.20;;
22733;SDS011;11534;51.994;5.692;2023-07-13T02:29:51;0.20;;;0.20;;
22733;SDS011;11534;51.994;5.692;2023-07-13T02:32:18;0.20;;;0.20;;
22733;SDS011;11534;51.994;5.692;2023-07-13T02:34:44;0.20;;;0.20;;
22733;SDS011;11534;51.994;5.692;2023-07-13T02:37:09;0.25;;;0.25;;
22733;SDS011;11534;51.994;5.692;2023-07-13T02:39:35;0.85;;;0.32;;
22733;SDS011;11534;51.994;5.692;2023-07-13T02:42:01;0.47;;;0.47;;
22733;SDS011;11534;51.994;5.692;2023-07-13T02:44:26;0.28;;;0.28;;
22733;SDS011;11534;51.994;5.692;2023-07-13T02:46:52;0.32;;;0.32;;
22733;SDS011;11534;51.994;5.692;2023-07-13T02:49:18;0.20;;;0.20;;
22733;SDS011;11534;51.994;5.692;2023-07-13T02:51:45;0.30;;;0.30;;
22733;SDS011;11534;51.994;5.692;2023-07-13T02:54:10;0.28;;;0.28;;
22733;SDS011;11534;51.994;5.692;2023-07-13T02:56:38;0.55;;;0.47;;
22733;SDS011;11534;51.994;5.692;2023-07-13T02:59:04;1.50;;;1.40;;
22733;SDS011;11534;51.994;5.692;2023-07-13T03:01:30;0.30;;;0.30;;
22733;SDS011;11534;51.994;5.692;2023-07-13T03:03:59;0.30;;;0.30;;
22733;SDS011;11534;51.994;5.692;2023-07-13T03:06:25;0.50;;;0.50;;
22733;SDS011;11534;51.994;5.692;2023-07-13T03:08:54;0.20;;;0.20;;
22733;SDS011;11534;51.994;5.692;2023-07-13T03:11:20;0.88;;;0.77;;
22733;SDS011;11534;51.994;5.692;2023-07-13T03:13:46;0.75;;;0.68;;
22733;SDS011;11534;51.994;5.692;2023-07-13T03:16:13;0.20;;;0.20;;
22733;SDS011;11534;51.994;5.692;2023-07-13T03:18:41;0.93;;;0.80;;
22733;SDS011;11534;51.994;5.692;2023-07-13T03:21:06;0.13;;;0.13;;
22733;SDS011;11534;51.994;5.692;2023-07-13T03:23:32;0.40;;;0.40;;
22733;SDS011;11534;51.994;5.692;2023-07-13T03:26:05;0.68;;;0.68;;
22733;SDS011;11534;51.994;5.692;2023-07-13T03:28:33;0.20;;;0.20;;
22733;SDS011;11534;51.994;5.692;2023-07-13T03:31:07;0.20;;;0.20;;
22733;SDS011;11534;51.994;5.692;2023-07-13T03:33:35;0.20;;;0.20;;
22733;SDS011;11534;51.994;5.692;2023-07-13T03:36:02;1.20;;;1.13;;
22733;SDS011;11534;51.994;5.692;2023-07-13T03:38:29;0.60;;;0.60;;
22733;SDS011;11534;51.994;5.692;2023-07-13T03:40:55;0.70;;;0.57;;
22733;SDS011;11534;51.994;5.692;2023-07-13T03:43:20;0.50;;;0.50;;
22733;SDS011;11534;51.994;5.692;2023-07-13T03:45:46;0.57;;;0.57;;
22733;SDS011;11534;51.994;5.692;2023-07-13T03:48:12;0.50;;;0.50;;
22733;SDS011;11534;51.994;5.692;2023-07-13T03:50:38;0.35;;;0.30;;
22733;SDS011;11534;51.994;5.692;2023-07-13T03:53:04;0.30;;;0.30;;
22733;SDS011;11534;51.994;5.692;2023-07-13T03:55:30;0.40;;;0.40;;
22733;SDS011;11534;51.994;5.692;2023-07-13T03:58:00;0.60;;;0.60;;
22733;SDS011;11534;51.994;5.692;2023-07-13T04:00:46;0.30;;;0.30;;
22733;SDS011;11534;51.994;5.692;2023-07-13T04:03:12;0.40;;;0.40;;
22733;SDS011;11534;51.994;5.692;2023-07-13T04:05:37;0.20;;;0.20;;
22733;SDS011;11534;51.994;5.692;2023-07-13T04:08:05;0.32;;;0.32;;
22733;SDS011;11534;51.994;5.692;2023-07-13T04:10:31;0.40;;;0.40;;
22733;SDS011;11534;51.994;5.692;2023-07-13T04:12:57;0.35;;;0.32;;
22733;SDS011;11534;51.994;5.692;2023-07-13T04:15:23;0.30;;;0.30;;
22733;SDS011;11534;51.994;5.692;2023-07-13T04:17:49;0.60;;;0.32;;
22733;SDS011;11534;51.994;5.692;2023-07-13T04:20:14;0.30;;;0.30;;
22733;SDS011;11534;51.994;5.692;2023-07-13T04:22:40;0.20;;;0.20;;
22733;SDS011;11534;51.994;5.692;2023-07-13T04:25:06;0.70;;;0.70;;
22733;SDS011;11534;51.994;5.692;2023-07-13T04:27:31;0.50;;;0.50;;
22733;SDS011;11534;51.994;5.692;2023-07-13T04:29:57;0.30;;;0.30;;
22733;SDS011;11534;51.994;5.692;2023-07-13T04:32:23;1.48;;;1.23;;
22733;SDS011;11534;51.994;5.692;2023-07-13T04:34:49;0.35;;;0.35;;
22733;SDS011;11534;51.994;5.692;2023-07-13T04:37:19;0.65;;;0.50;;
22733;SDS011;11534;51.994;5.692;2023-07-13T04:39:45;0.43;;;0.43;;
22733;SDS011;11534;51.994;5.692;2023-07-13T04:42:11;0.38;;;0.38;;
22733;SDS011;11534;51.994;5.692;2023-07-13T04:44:37;1.70;;;1.23;;
22733;SDS011;11534;51.994;5.692;2023-07-13T04:47:03;0.73;;;0.73;;
22733;SDS011;11534;51.994;5.692;2023-07-13T04:49:29;0.30;;;0.30;;
22733;SDS011;11534;51.994;5.692;2023-07-13T04:51:55;0.30;;;0.30;;
22733;SDS011;11534;51.994;5.692;2023-07-13T04:54:21;0.60;;;0.60;;
22733;SDS011;11534;51.994;5.692;2023-07-13T04:56:47;0.60;;;0.50;;
22733;SDS011;11534;51.994;5.692;2023-07-13T04:59:13;0.30;;;0.30;;
22733;SDS011;11534;51.994;5.692;2023-07-13T05:01:39;0.68;;;0.68;;
22733;SDS011;11534;51.994;5.692;2023-07-13T05:04:05;0.47;;;0.40;;
22733;SDS011;11534;51.994;5.692;2023-07-13T05:06:31;0.52;;;0.52;;
22733;SDS011;11534;51.994;5.692;2023-07-13T05:08:57;0.35;;;0.35;;
22733;SDS011;11534;51.994;5.692;2023-07-13T05:11:23;0.85;;;0.55;;
22733;SDS011;11534;51.994;5.692;2023-07-13T05:13:49;0.32;;;0.32;;
22733;SDS011;11534;51.994;5.692;2023-07-13T05:16:14;1.27;;;0.75;;
22733;SDS011;11534;51.994;5.692;2023-07-13T05:18:40;1.73;;;0.60;;
22733;SDS011;11534;51.994;5.692;2023-07-13T05:21:07;0.82;;;0.80;;
22733;SDS011;11534;51.994;5.692;2023-07-13T05:23:34;0.65;;;0.65;;
22733;SDS011;11534;51.994;5.692;2023-07-13T05:26:01;0.47;;;0.47;;
22733;SDS011;11534;51.994;5.692;2023-07-13T05:28:28;1.17;;;0.55;;
22733;SDS011;11534;51.994;5.692;2023-07-13T05:30:55;0.52;;;0.52;;
22733;SDS011;11534;51.994;5.692;2023-07-13T05:33:20;0.60;;;0.57;;
22733;SDS011;11534;51.994;5.692;2023-07-13T05:35:47;0.43;;;0.43;;
22733;SDS011;11534;51.994;5.692;2023-07-13T05:38:12;2.38;;;1.38;;
22733;SDS011;11534;51.994;5.692;2023-07-13T05:40:38;0.57;;;0.55;;
22733;SDS011;11534;51.994;5.692;2023-07-13T05:43:04;0.50;;;0.43;;
22733;SDS011;11534;51.994;5.692;2023-07-13T05:45:30;0.30;;;0.30;;
22733;SDS011;11534;51.994;5.692;2023-07-13T05:47:56;0.30;;;0.30;;
22733;SDS011;11534;51.994;5.692;2023-07-13T05:50:21;0.30;;;0.30;;
22733;SDS011;11534;51.994;5.692;2023-07-13T05:52:47;0.45;;;0.45;;
22733;SDS011;11534;51.994;5.692;2023-07-13T05:55:13;0.60;;;0.60;;
22733;SDS011;11534;51.994;5.692;2023-07-13T05:57:38;0.43;;;0.43;;
22733;SDS011;11534;51.994;5.692;2023-07-13T06:00:04;0.60;;;0.60;;
22733;SDS011;11534;51.994;5.692;2023-07-13T06:02:31;0.93;;;0.80;;
22733;SDS011;11534;51.994;5.692;2023-07-13T06:04:56;0.93;;;0.93;;
22733;SDS011;11534;51.994;5.692;2023-07-13T06:07:22;0.88;;;0.52;;
22733;SDS011;11534;51.994;5.692;2023-07-13T06:09:48;0.65;;;0.65;;
22733;SDS011;11534;51.994;5.692;2023-07-13T06:12:14;0.40;;;0.40;;
22733;SDS011;11534;51.994;5.692;2023-07-13T06:14:41;0.60;;;0.60;;
22733;SDS011;11534;51.994;5.692;2023-07-13T06:17:07;0.60;;;0.60;;
22733;SDS011;11534;51.994;5.692;2023-07-13T06:19:33;0.73;;;0.73;;
22733;SDS011;11534;51.994;5.692;2023-07-13T06:21:59;0.95;;;0.73;;
22733;SDS011;11534;51.994;5.692;2023-07-13T06:24:25;0.50;;;0.50;;
22733;SDS011;11534;51.994;5.692;2023-07-13T06:26:51;0.80;;;0.77;;
22733;SDS011;11534;51.994;5.692;2023-07-13T06:29:16;0.50;;;0.50;;
22733;SDS011;11534;51.994;5.692;2023-07-13T06:31:42;1.85;;;1.17;;
22733;SDS011;11534;51.994;5.692;2023-07-13T06:34:08;0.93;;;0.90;;
22733;SDS011;11534;51.994;5.692;2023-07-13T06:36:33;1.58;;;1.13;;
22733;SDS011;11534;51.994;5.692;2023-07-13T06:39:01;0.93;;;0.80;;
22733;SDS011;11534;51.994;5.692;2023-07-13T06:41:28;0.82;;;0.82;;
22733;SDS011;11534;51.994;5.692;2023-07-13T06:43:55;1.25;;;1.13;;
22733;SDS011;11534;51.994;5.692;2023-07-13T06:46:21;0.93;;;0.82;;
22733;SDS011;11534;51.994;5.692;2023-07-13T06:48:48;0.85;;;0.75;;
22733;SDS011;11534;51.994;5.692;2023-07-13T06:51:13;1.05;;;0.88;;
22733;SDS011;11534;51.994;5.692;2023-07-13T06:53:39;0.70;;;0.70;;
22733;SDS011;11534;51.994;5.692;2023-07-13T06:56:05;1.10;;;1.00;;
22733;SDS011;11534;51.994;5.692;2023-07-13T06:58:31;2.00;;;1.33;;
22733;SDS011;11534;51.994;5.692;2023-07-13T07:00:58;1.33;;;1.20;;
22733;SDS011;11534;51.994;5.692;2023-07-13T07:03:24;0.85;;;0.82;;
22733;SDS011;11534;51.994;5.692;2023-07-13T07:05:49;1.45;;;1.17;;
22733;SDS011;11534;51.994;5.692;2023-07-13T07:08:15;0.90;;;0.90;;
22733;SDS011;11534;51.994;5.692;2023-07-13T07:10:41;1.88;;;0.98;;
22733;SDS011;11534;51.994;5.692;2023-07-13T07:13:07;0.73;;;0.73;;
22733;SDS011;11534;51.994;5.692;2023-07-13T07:15:33;1.27;;;1.17;;
22733;SDS011;11534;51.994;5.692;2023-07-13T07:18:00;1.98;;;0.98;;
22733;SDS011;11534;51.994;5.692;2023-07-13T07:20:25;1.45;;;1.35;;
22733;SDS011;11534;51.994;5.692;2023-07-13T07:22:51;3.15;;;1.52;;
22733;SDS011;11534;51.994;5.692;2023-07-13T07:25:17;1.85;;;1.00;;
22733;SDS011;11534;51.994;5.692;2023-07-13T07:27:43;1.10;;;0.90;;
22733;SDS011;11534;51.994;5.692;2023-07-13T07:30:10;1.30;;;1.20;;
22733;SDS011;11534;51.994;5.692;2023-07-13T07:32:36;1.25;;;1.10;;
22733;SDS011;11534;51.994;5.692;2023-07-13T07:35:02;1.40;;;1.17;;
22733;SDS011;11534;51.994;5.692;2023-07-13T07:37:28;1.52;;;1.33;;
22733;SDS011;11534;51.994;5.692;2023-07-13T07:39:53;1.17;;;1.08;;
22733;SDS011;11534;51.994;5.692;2023-07-13T07:42:19;1.17;;;0.75;;
22733;SDS011;11534;51.994;5.692;2023-07-13T07:44:45;1.63;;;1.30;;
22733;SDS011;11534;51.994;5.692;2023-07-13T07:47:10;2.08;;;1.70;;
22733;SDS011;11534;51.994;5.692;2023-07-13T07:49:36;2.17;;;1.98;;
22733;SDS011;11534;51.994;5.692;2023-07-13T07:52:03;2.67;;;1.83;;
22733;SDS011;11534;51.994;5.692;2023-07-13T07:54:29;1.25;;;1.13;;
22733;SDS011;11534;51.994;5.692;2023-07-13T07:56:55;1.75;;;1.20;;
22733;SDS011;11534;51.994;5.692;2023-07-13T07:59:20;3.80;;;1.30;;
22733;SDS011;11534;51.994;5.692;2023-07-13T08:01:46;1.90;;;1.38;;
22733;SDS011;11534;51.994;5.692;2023-07-13T08:04:15;2.42;;;1.80;;
22733;SDS011;11534;51.994;5.692;2023-07-13T08:06:41;1.83;;;1.40;;
22733;SDS011;11534;51.994;5.692;2023-07-13T08:09:06;1.77;;;1.52;;
22733;SDS011;11534;51.994;5.692;2023-07-13T08:11:33;1.17;;;0.95;;
22733;SDS011;11534;51.994;5.692;2023-07-13T08:13:59;4.50;;;1.73;;
22733;SDS011;11534;51.994;5.692;2023-07-13T08:16:24;1.42;;;1.33;;
22733;SDS011;11534;51.994;5.692;2023-07-13T08:18:51;0.88;;;0.88;;
22733;SDS011;11534;51.994;5.692;2023-07-13T08:21:16;1.10;;;0.93;;
22733;SDS011;11534;51.994;5.692;2023-07-13T08:23:44;1.40;;;1.05;;
22733;SDS011;11534;51.994;5.692;2023-07-13T08:26:10;1.20;;;1.10;;
22733;SDS011;11534;51.994;5.692;2023-07-13T08:28:36;3.33;;;1.13;;
22733;SDS011;11534;51.994;5.692;2023-07-13T08:31:02;1.05;;;0.95;;
22733;SDS011;11534;51.994;5.692;2023-07-13T08:33:29;2.15;;;1.95;;
22733;SDS011;11534;51.994;5.692;2023-07-13T08:35:54;4.03;;;2.25;;
22733;SDS011;11534;51.994;5.692;2023-07-13T08:38:20;1.73;;;1.08;;
22733;SDS011;11534;51.994;5.692;2023-07-13T08:40:50;1.42;;;1.25;;
22733;SDS011;11534;51.994;5.692;2023-07-13T08:43:19;1.42;;;1.30;;
22733;SDS011;11534;51.994;5.692;2023-07-13T08:45:51;3.63;;;1.80;;
22733;SDS011;11534;51.994;5.692;2023-07-13T08:48:22;1.10;;;1.00;;
22733;SDS011;11534;51.994;5.692;2023-07-13T08:50:59;0.80;;;0.80;;
22733;SDS011;11534;51.994;5.692;2023-07-13T08:53:30;2.15;;;1.98;;
22733;SDS011;11534;51.994;5.692;2023-07-13T08:56:04;1.40;;;1.30;;
22733;SDS011;11534;51.994;5.692;2023-07-13T08:58:34;0.65;;;0.60;;
22733;SDS011;11534;51.994;5.692;2023-07-13T09:09:15;1.30;;;0.63;;
22733;SDS011;11534;51.994;5.692;2023-07-13T09:12:17;0.45;;;0.40;;
22733;SDS011;11534;51.994;5.692;2023-07-13T09:15:04;1.60;;;0.60;;
22733;SDS011;11534;51.994;5.692;2023-07-13T09:17:44;1.73;;;0.98;;
22733;SDS011;11534;51.994;5.692;2023-07-13T09:21:17;1.27;;;1.13;;
22733;SDS011;11534;51.994;5.692;2023-07-13T09:23:23;2.42;;;1.15;;
22733;SDS011;11534;51.994;5.692;2023-07-13T09:25:53;0.57;;;0.38;;
22733;SDS011;11534;51.994;5.692;2023-07-13T09:28:29;0.57;;;0.57;;
22733;SDS011;11534;51.994;5.692;2023-07-13T09:31:07;1.75;;;1.23;;
22733;SDS011;11534;51.994;5.692;2023-07-13T09:33:46;0.40;;;0.40;;
22733;SDS011;11534;51.994;5.692;2023-07-13T09:38:44;1.58;;;0.75;;
22733;SDS011;11534;51.994;5.692;2023-07-13T09:46:34;0.25;;;0.25;;
22733;SDS011;11534;51.994;5.692;2023-07-13T09:49:00;0.57;;;0.57;;
22733;SDS011;11534;51.994;5.692;2023-07-13T09:51:26;1.50;;;1.20;;
22733;SDS011;11534;51.994;5.692;2023-07-13T09:53:52;1.65;;;1.08;;
22733;SDS011;11534;51.994;5.692;2023-07-13T09:56:23;0.57;;;0.52;;
22733;SDS011;11534;51.994;5.692;2023-07-13T09:58:52;0.40;;;0.40;;
22733;SDS011;11534;51.994;5.692;2023-07-13T10:01:30;0.47;;;0.47;;
22733;SDS011;11534;51.994;5.692;2023-07-13T10:03:58;0.38;;;0.38;;
22733;SDS011;11534;51.994;5.692;2023-07-13T10:06:24;0.63;;;0.63;;
22733;SDS011;11534;51.994;5.692;2023-07-13T10:08:51;0.65;;;0.60;;
22733;SDS011;11534;51.994;5.692;2023-07-13T10:11:22;0.50;;;0.40;;
22733;SDS011;11534;51.994;5.692;2023-07-13T10:13:55;0.65;;;0.65;;
22733;SDS011;11534;51.994;5.692;2023-07-13T10:16:24;0.70;;;0.70;;
22733;SDS011;11534;51.994;5.692;2023-07-13T10:18:56;0.60;;;0.60;;
22733;SDS011;11534;51.994;5.692;2023-07-13T10:21:30;1.15;;;0.70;;
22733;SDS011;11534;51.994;5.692;2023-07-13T10:24:17;0.40;;;0.40;;
22733;SDS011;11534;51.994;5.692;2023-07-13T10:26:54;0.52;;;0.52;;
22733;SDS011;11534;51.994;5.692;2023-07-13T10:29:36;2.38;;;0.70;;
22733;SDS011;11534;51.994;5.692;2023-07-13T10:32:09;5.80;;;1.25;;
22733;SDS011;11534;51.994;5.692;2023-07-13T10:34:36;2.78;;;1.02;;
22733;SDS011;11534;51.994;5.692;2023-07-13T10:37:03;0.63;;;0.63;;
22733;SDS011;11534;51.994;5.692;2023-07-13T10:39:33;1.67;;;0.65;;
22733;SDS011;11534;51.994;5.692;2023-07-13T10:42:01;0.57;;;0.50;;
22733;SDS011;11534;51.994;5.692;2023-07-13T10:44:31;3.88;;;1.75;;
22733;SDS011;11534;51.994;5.692;2023-07-13T10:47:02;2.25;;;1.52;;
22733;SDS011;11534;51.994;5.692;2023-07-13T10:49:32;0.25;;;0.25;;
22733;SDS011;11534;51.994;5.692;2023-07-13T10:52:00;0.65;;;0.60;;
22733;SDS011;11534;51.994;5.692;2023-07-13T10:59:42;0.30;;;0.30;;
22733;SDS011;11534;51.994;5.692;2023-07-13T11:02:29;1.52;;;0.82;;
22733;SDS011;11534;51.994;5.692;2023-07-13T11:04:56;0.40;;;0.30;;
22733;SDS011;11534;51.994;5.692;2023-07-13T11:07:24;0.63;;;0.47;;
22733;SDS011;11534;51.994;5.692;2023-07-13T11:09:56;0.70;;;0.60;;
22733;SDS011;11534;51.994;5.692;2023-07-13T11:12:48;0.50;;;0.50;;
22733;SDS011;11534;51.994;5.692;2023-07-13T11:15:30;0.70;;;0.70;;
22733;SDS011;11534;51.994;5.692;2023-07-13T11:18:11;0.90;;;0.68;;
22733;SDS011;11534;51.994;5.692;2023-07-13T11:20:46;1.10;;;0.68;;
22733;SDS011;11534;51.994;5.692;2023-07-13T11:25:41;0.47;;;0.38;;
22733;SDS011;11534;51.994;5.692;2023-07-13T11:30:48;1.15;;;0.50;;
22733;SDS011;11534;51.994;5.692;2023-07-13T11:33:18;1.27;;;0.30;;
22733;SDS011;11534;51.994;5.692;2023-07-13T11:40:55;0.60;;;0.50;;
22733;SDS011;11534;51.994;5.692;2023-07-13T11:43:23;1.20;;;1.08;;
22733;SDS011;11534;51.994;5.692;2023-07-13T11:45:49;0.60;;;0.60;;
22733;SDS011;11534;51.994;5.692;2023-07-13T11:48:19;1.67;;;1.05;;
22733;SDS011;11534;51.994;5.692;2023-07-13T11:50:51;5.47;;;0.95;;
22733;SDS011;11534;51.994;5.692;2023-07-13T11:53:26;0.25;;;0.25;;
22733;SDS011;11534;51.994;5.692;2023-07-13T11:55:53;0.65;;;0.50;;
22733;SDS011;11534;51.994;5.692;2023-07-13T11:58:21;0.75;;;0.60;;
22733;SDS011;11534;51.994;5.692;2023-07-13T12:00:49;0.40;;;0.40;;
22733;SDS011;11534;51.994;5.692;2023-07-13T12:03:18;0.43;;;0.43;;
22733;SDS011;11534;51.994;5.692;2023-07-13T12:05:55;0.40;;;0.30;;
22733;SDS011;11534;51.994;5.692;2023-07-13T12:08:26;0.75;;;0.52;;
22733;SDS011;11534;51.994;5.692;2023-07-13T12:10:59;0.30;;;0.30;;
22733;SDS011;11534;51.994;5.692;2023-07-13T12:13:34;1.15;;;0.32;;
22733;SDS011;11534;51.994;5.692;2023-07-13T12:16:02;0.47;;;0.30;;
22733;SDS011;11534;51.994;5.692;2023-07-13T12:18:32;0.25;;;0.25;;
22733;SDS011;11534;51.994;5.692;2023-07-13T12:20:59;1.00;;;0.70;;
22733;SDS011;11534;51.994;5.692;2023-07-13T12:23:32;0.30;;;0.30;;
22733;SDS011;11534;51.994;5.692;2023-07-13T12:26:01;0.40;;;0.40;;
22733;SDS011;11534;51.994;5.692;2023-07-13T12:28:35;1.65;;;1.08;;
22733;SDS011;11534;51.994;5.692;2023-07-13T12:31:22;0.40;;;0.40;;
22733;SDS011;11534;51.994;5.692;2023-07-13T12:39:24;1.08;;;0.50;;
22733;SDS011;11534;51.994;5.692;2023-07-13T12:42:09;0.20;;;0.20;;
22733;SDS011;11534;51.994;5.692;2023-07-13T12:47:23;0.75;;;0.55;;
22733;SDS011;11534;51.994;5.692;2023-07-13T12:49:59;0.68;;;0.63;;
22733;SDS011;11534;51.994;5.692;2023-07-13T12:52:34;0.40;;;0.40;;
22733;SDS011;11534;51.994;5.692;2023-07-13T12:57:39;1.00;;;0.50;;
22733;SDS011;11534;51.994;5.692;2023-07-13T13:00:41;0.22;;;0.22;;
22733;SDS011;11534;51.994;5.692;2023-07-13T13:03:05;0.65;;;0.57;;
22733;SDS011;11534;51.994;5.692;2023-07-13T13:05:41;0.20;;;0.20;;
22733;SDS011;11534;51.994;5.692;2023-07-13T13:08:10;0.75;;;0.75;;
22733;SDS011;11534;51.994;5.692;2023-07-13T13:10:36;0.47;;;0.40;;
22733;SDS011;11534;51.994;5.692;2023-07-13T13:13:02;0.32;;;0.30;;
22733;SDS011;11534;51.994;5.692;2023-07-13T13:15:28;0.50;;;0.45;;
22733;SDS011;11534;51.994;5.692;2023-07-13T13:17:55;0.30;;;0.30;;
22733;SDS011;11534;51.994;5.692;2023-07-13T13:20:21;0.40;;;0.32;;
22733;SDS011;11534;51.994;5.692;2023-07-13T13:22:48;0.65;;;0.47;;
22733;SDS011;11534;51.994;5.692;2023-07-13T13:25:14;0.30;;;0.30;;
22733;SDS011;11534;51.994;5.692;2023-07-13T13:27:41;0.35;;;0.35;;
22733;SDS011;11534;51.994;5.692;2023-07-13T13:30:11;0.40;;;0.32;;
22733;SDS011;11534;51.994;5.692;2023-07-13T13:32:39;0.65;;;0.40;;
22733;SDS011;11534;51.994;5.692;2023-07-13T13:35:05;0.63;;;0.28;;
22733;SDS011;11534;51.994;5.692;2023-07-13T13:37:37;1.00;;;0.75;;
22733;SDS011;11534;51.994;5.692;2023-07-13T13:40:04;0.60;;;0.60;;
22733;SDS011;11534;51.994;5.692;2023-07-13T13:42:38;0.43;;;0.30;;
22733;SDS011;11534;51.994;5.692;2023-07-13T13:45:04;1.27;;;0.65;;
22733;SDS011;11534;51.994;5.692;2023-07-13T13:47:32;0.65;;;0.55;;
22733;SDS011;11534;51.994;5.692;2023-07-13T13:50:01;0.85;;;0.40;;
22733;SDS011;11534;51.994;5.692;2023-07-13T13:52:27;1.25;;;0.85;;
22733;SDS011;11534;51.994;5.692;2023-07-13T13:54:53;0.73;;;0.50;;
22733;SDS011;11534;51.994;5.692;2023-07-13T13:57:21;0.38;;;0.38;;
22733;SDS011;11534;51.994;5.692;2023-07-13T13:59:51;0.80;;;0.68;;
22733;SDS011;11534;51.994;5.692;2023-07-13T14:02:25;0.22;;;0.20;;
22733;SDS011;11534;51.994;5.692;2023-07-13T14:04:54;0.47;;;0.47;;
22733;SDS011;11534;51.994;5.692;2023-07-13T14:07:22;0.60;;;0.45;;
22733;SDS011;11534;51.994;5.692;2023-07-13T14:09:48;0.52;;;0.52;;
22733;SDS011;11534;51.994;5.692;2023-07-13T14:12:14;0.60;;;0.40;;
22733;SDS011;11534;51.994;5.692;2023-07-13T14:14:39;0.32;;;0.25;;
22733;SDS011;11534;51.994;5.692;2023-07-13T14:17:09;0.50;;;0.50;;
22733;SDS011;11534;51.994;5.692;2023-07-13T14:19:50;0.60;;;0.50;;
22733;SDS011;11534;51.994;5.692;2023-07-13T14:22:19;0.28;;;0.28;;
22733;SDS011;11534;51.994;5.692;2023-07-13T14:24:45;0.20;;;0.20;;
22733;SDS011;11534;51.994;5.692;2023-07-13T14:27:11;2.03;;;0.88;;
22733;SDS011;11534;51.994;5.692;2023-07-13T14:29:38;0.40;;;0.40;;
22733;SDS011;11534;51.994;5.692;2023-07-13T14:32:04;0.52;;;0.35;;
22733;SDS011;11534;51.994;5.692;2023-07-13T14:34:31;0.52;;;0.38;;
22733;SDS011;11534;51.994;5.692;2023-07-13T14:36:56;0.35;;;0.35;;
22733;SDS011;11534;51.994;5.692;2023-07-13T14:39:24;1.08;;;0.50;;
22733;SDS011;11534;51.994;5.692;2023-07-13T14:41:50;0.93;;;0.52;;
22733;SDS011;11534;51.994;5.692;2023-07-13T14:44:20;0.20;;;0.20;;
22733;SDS011;11534;51.994;5.692;2023-07-13T14:46:48;1.27;;;0.50;;
22733;SDS011;11534;51.994;5.692;2023-07-13T14:51:50;0.50;;;0.50;;
22733;SDS011;11534;51.994;5.692;2023-07-13T14:54:17;0.80;;;0.40;;
22733;SDS011;11534;51.994;5.692;2023-07-13T14:56:42;0.40;;;0.30;;
22733;SDS011;11534;51.994;5.692;2023-07-13T14:59:08;0.47;;;0.40;;
22733;SDS011;11534;51.994;5.692;2023-07-13T15:01:34;0.43;;;0.30;;
22733;SDS011;11534;51.994;5.692;2023-07-13T15:04:01;0.25;;;0.25;;
22733;SDS011;11534;51.994;5.692;2023-07-13T15:06:28;0.35;;;0.35;;
22733;SDS011;11534;51.994;5.692;2023-07-13T15:08:56;0.55;;;0.55;;
22733;SDS011;11534;51.994;5.692;2023-07-13T15:11:22;0.38;;;0.35;;
22733;SDS011;11534;51.994;5.692;2023-07-13T15:13:48;0.32;;;0.32;;
22733;SDS011;11534;51.994;5.692;2023-07-13T15:16:18;0.45;;;0.38;;
22733;SDS011;11534;51.994;5.692;2023-07-13T15:18:48;0.38;;;0.38;;
22733;SDS011;11534;51.994;5.692;2023-07-13T15:21:18;0.30;;;0.30;;
22733;SDS011;11534;51.994;5.692;2023-07-13T15:23:46;0.40;;;0.30;;
22733;SDS011;11534;51.994;5.692;2023-07-13T15:26:15;0.30;;;0.30;;
22733;SDS011;11534;51.994;5.692;2023-07-13T15:28:42;0.77;;;0.50;;
22733;SDS011;11534;51.994;5.692;2023-07-13T15:31:22;0.65;;;0.52;;
22733;SDS011;11534;51.994;5.692;2023-07-13T15:33:50;0.55;;;0.50;;
22733;SDS011;11534;51.994;5.692;2023-07-13T15:36:17;0.20;;;0.20;;
22733;SDS011;11534;51.994;5.692;2023-07-13T15:38:44;0.43;;;0.40;;
22733;SDS011;11534;51.994;5.692;2023-07-13T15:43:48;0.30;;;0.30;;